Annapolis, Indiana
Current Conditions -  °F | °C
As of 7:35 PM on Saturday 22 Nov 2014 (Local Time) from KPRG Reporting Station
Overcast Overcast  
Wind Chill: 55°   Ceiling: 3600
Heat Index: 55°   Visibility: 10mi
Dew Point: 45°   Wind: 13mph
Humidity: 71%   Direction: 190°S
Pressure: 29.99"   Gusts: 16mph
Location:  39.8468°N, 87.2662°W
Report Text: KPRG 230035Z AUTO 19011G14KT 10SM OVC036 13/07 A2999 RMK AO2 T01250073
Loading
Personal Weather Stations






























Interactive Weather Map New forecast layout! Learn more

10-Day Weather Forecast

Advertisements
Track Severe Weather on mobile